Terminal Aerodrome Forecast
Issued by NWS Louisville, KY

Home | Current Version | Previous Version | Text Only | Print | Product List | Glossary On
Versions: 1 2 3 4 5 6 7 8 9 10 11 12 13 14 15 16 17 18 19
000
FTUS43 KLMK 282300
TAFLEX
TAF
KLEX 282320Z 2900/2924 35007KT 3/4SM BR OVC003
     FM290200 02003KT 2SM BR OVC007
     FM291300 03007KT 6SM BR OVC010
     FM291800 03008KT P6SM BKN015 BKN250=

USA.gov is the U.S. government's official web portal to all federal, state and local government web resources and services.